Aviation Digital Data Service (ADDS)

Output produced by TAFs form (0837 UTC 22 February 2017)
found at http://aviationweather.gov/adds/tafs/
 
KGJT 220542Z 2206/2306 18004KT P6SM SCT200 WS020/23035KT 
     FM220800 12010KT P6SM FEW200 WS020/24030KT 
     FM221700 25008KT P6SM VCSH BKN035 
     FM222100 26018G29KT P6SM -SHRA BKN035 BKN130 
     FM230200 28008KT P6SM SCT150 
     FM230300 12007KT P6SM SCT150